Time;durP1;ratioP1;P1;durP2;ratioP2;P2;SDS_P1;SDS_P2;PMS_P1;PMS_P2;Temp;Humidity;BMP_temperature;BMP_pressure;BME280_temperature;BME280_humidity;BME280_pressure;Samples;Min_cycle;Max_cycle;Signal;HPM_P1;HPM_P2
2023/04/14 00:01:15;;;;;;;5.80;2.60;;;;;;;9.91;100.00;98899.89;105381;1260;61871;-59
2023/04/14 00:03:45;;;;;;;5.20;2.40;;;;;;;9.90;100.00;98899.78;105418;1263;75595;-58
2023/04/14 00:06:14;;;;;;;5.70;3.10;;;;;;;9.90;100.00;98899.30;104969;1260;68076;-57
2023/04/14 00:08:43;;;;;;;10.90;2.90;;;;;;;9.92;100.00;98897.52;105156;1263;73212;-57
2023/04/14 00:11:12;;;;;;;6.10;2.40;;;;;;;9.93;100.00;98896.23;105258;1263;62686;-59
2023/04/14 00:13:40;;;;;;;6.10;2.40;;;;;;;9.94;100.00;98901.15;105180;1260;61856;-58
2023/04/14 00:16:11;;;;;;;7.40;3.20;;;;;;;9.93;100.00;98894.98;105132;1264;75119;-58
2023/04/14 00:18:40;;;;;;;5.40;3.00;;;;;;;9.93;100.00;98896.95;105159;1261;68609;-59
2023/04/14 00:21:08;;;;;;;5.30;2.50;;;;;;;9.91;100.00;98896.25;105198;1261;73319;-58
2023/04/14 00:23:38;;;;;;;5.70;2.40;;;;;;;9.89;100.00;98897.83;105217;1260;63462;-59
2023/04/14 00:26:07;;;;;;;4.80;2.10;;;;;;;9.89;100.00;98903.08;105160;1260;61272;-58
2023/04/14 00:28:36;;;;;;;9.70;2.90;;;;;;;9.89;100.00;98902.92;105085;1260;75684;-58
2023/04/14 00:31:07;;;;;;;8.60;3.30;;;;;;;9.90;100.00;98902.07;105171;1264;69460;-57
2023/04/14 00:33:36;;;;;;;11.00;3.00;;;;;;;9.90;100.00;98901.02;105472;1271;74843;-58
2023/04/14 00:36:06;;;;;;;9.40;3.50;;;;;;;9.89;100.00;98907.83;105088;1259;63576;-57
2023/04/14 00:38:36;;;;;;;6.30;2.30;;;;;;;9.87;100.00;98910.77;105277;1265;61980;-58
2023/04/14 00:41:04;;;;;;;10.60;3.00;;;;;;;9.87;100.00;98911.33;105226;1261;76019;-58
2023/04/14 00:43:33;;;;;;;8.30;2.90;;;;;;;9.89;100.00;98914.77;105497;1263;67599;-61
2023/04/14 00:46:02;;;;;;;8.40;2.70;;;;;;;9.88;100.00;98912.72;105212;1264;75170;-57
2023/04/14 00:48:32;;;;;;;7.20;2.70;;;;;;;9.88;100.00;98913.80;105185;1260;63626;-59
2023/04/14 00:51:02;;;;;;;8.70;2.90;;;;;;;9.88;100.00;98912.77;105228;1265;61300;-57
2023/04/14 00:53:33;;;;;;;5.60;2.20;;;;;;;9.87;100.00;98909.13;105112;1263;74851;-59
2023/04/14 00:56:02;;;;;;;8.00;3.30;;;;;;;9.85;100.00;98912.02;105208;1263;68602;-57
2023/04/14 00:58:30;;;;;;;6.10;2.10;;;;;;;9.84;100.00;98913.15;105226;1260;74159;-59
2023/04/14 01:00:59;;;;;;;9.90;2.70;;;;;;;9.84;100.00;98915.95;105207;1265;62350;-58
2023/04/14 01:03:31;;;;;;;4.90;2.40;;;;;;;9.82;100.00;98915.70;105410;1261;62203;-61
2023/04/14 01:06:00;;;;;;;7.40;2.70;;;;;;;9.80;100.00;98917.66;105120;1260;75485;-59
2023/04/14 01:08:29;;;;;;;5.30;2.20;;;;;;;9.80;100.00;98916.98;105017;1260;68090;-58
2023/04/14 01:11:14;;;;;;;8.30;2.70;;;;;;;9.80;100.00;98918.54;104933;1260;74235;-59
2023/04/14 01:13:53;;;;;;;6.90;3.80;;;;;;;9.80;100.00;98917.23;104922;1266;61985;-60
2023/04/14 01:16:30;;;;;;;7.10;2.80;;;;;;;9.80;100.00;98917.19;105138;1264;61281;-58
2023/04/14 01:19:17;;;;;;;6.20;2.70;;;;;;;9.78;100.00;98915.41;104800;1266;75090;-58
2023/04/14 01:21:49;;;;;;;6.10;3.30;;;;;;;9.77;100.00;98915.88;105092;1260;67793;-58
2023/04/14 01:24:42;;;;;;;7.90;2.60;;;;;;;9.74;100.00;98917.83;105207;1264;72266;-57
2023/04/14 01:27:30;;;;;;;6.70;2.10;;;;;;;9.71;100.00;98912.45;104993;1261;61982;-57
2023/04/14 01:30:11;;;;;;;7.00;2.70;;;;;;;9.70;100.00;98913.17;105144;1266;61168;-59
2023/04/14 01:32:44;;;;;;;10.50;3.00;;;;;;;9.70;100.00;98914.49;105109;1261;75241;-63
2023/04/14 01:35:19;;;;;;;6.00;3.00;;;;;;;9.69;100.00;98915.73;105182;1260;68844;-58
2023/04/14 01:37:48;;;;;;;8.70;2.50;;;;;;;9.69;100.00;98918.85;105190;1261;73667;-58
2023/04/14 01:40:17;;;;;;;5.30;2.70;;;;;;;9.67;100.00;98915.98;105152;1267;62388;-57
2023/04/14 01:42:55;;;;;;;6.00;2.70;;;;;;;9.64;100.00;98918.34;105290;1266;61733;-57
2023/04/14 01:45:25;;;;;;;5.00;2.40;;;;;;;9.62;100.00;98913.34;105478;1260;76097;-62
2023/04/14 01:47:54;;;;;;;5.40;2.30;;;;;;;9.60;100.00;98909.77;105213;1267;67825;-57
2023/04/14 01:50:24;;;;;;;5.50;2.70;;;;;;;9.58;100.00;98910.30;105218;1265;73536;-60
2023/04/14 01:52:54;;;;;;;4.30;2.10;;;;;;;9.57;100.00;98911.05;104949;1259;63260;-59
2023/04/14 01:55:24;;;;;;;7.50;2.30;;;;;;;9.55;100.00;98911.06;105268;1261;61812;-62
2023/04/14 01:57:54;;;;;;;6.10;2.80;;;;;;;9.55;100.00;98909.91;105254;1267;77026;-59
2023/04/14 02:00:23;;;;;;;5.90;3.00;;;;;;;9.55;100.00;98914.40;105219;1262;67318;-57
2023/04/14 02:02:52;;;;;;;9.90;2.70;;;;;;;9.54;100.00;98917.59;105198;1260;73252;-58
2023/04/14 02:05:23;;;;;;;9.70;3.10;;;;;;;9.54;100.00;98918.02;105096;1267;62554;-62
2023/04/14 02:07:52;;;;;;;3.60;2.00;;;;;;;9.54;100.00;98921.67;105324;1264;61543;-59
2023/04/14 02:10:21;;;;;;;6.60;2.30;;;;;;;9.56;100.00;98926.07;105110;1266;75838;-58
2023/04/14 02:12:51;;;;;;;5.50;2.30;;;;;;;9.57;100.00;98924.73;105397;1262;67388;-60
2023/04/14 02:15:40;;;;;;;6.00;2.60;;;;;;;9.58;100.00;98924.53;104926;1266;76085;-58
2023/04/14 02:18:09;;;;;;;5.40;2.60;;;;;;;9.59;100.00;98926.48;105422;1260;62717;-58
2023/04/14 02:20:43;;;;;;;7.10;2.60;;;;;;;9.58;100.00;98924.20;105162;1262;62879;-59
2023/04/14 02:23:27;;;;;;;4.80;2.20;;;;;;;9.58;100.00;98920.61;104974;1264;76030;-59
2023/04/14 02:25:59;;;;;;;4.80;2.40;;;;;;;9.57;100.00;98926.10;105144;1260;68588;-61
2023/04/14 02:28:33;;;;;;;4.70;2.50;;;;;;;9.57;100.00;98925.02;104893;1260;74245;-63
2023/04/14 02:31:05;;;;;;;5.60;2.20;;;;;;;9.57;100.00;98926.82;105186;1259;61675;-59
2023/04/14 02:33:35;;;;;;;4.30;2.30;;;;;;;9.56;100.00;98931.86;105127;1265;61157;-60
2023/04/14 02:36:11;;;;;;;4.70;2.30;;;;;;;9.55;100.00;98927.20;105024;1267;76059;-59
2023/04/14 02:38:49;;;;;;;6.80;2.20;;;;;;;9.54;100.00;98933.64;105091;1263;69012;-59
2023/04/14 02:41:24;;;;;;;6.40;2.10;;;;;;;9.54;100.00;98937.52;105099;1259;73969;-59
2023/04/14 02:44:20;;;;;;;6.20;1.70;;;;;;;9.55;100.00;98942.17;105281;1260;63450;-59
2023/04/14 02:47:02;;;;;;;3.40;2.30;;;;;;;9.55;100.00;98946.33;105259;1260;61248;-59
2023/04/14 02:49:40;;;;;;;3.70;2.30;;;;;;;9.56;100.00;98949.80;104845;1266;74490;-64
2023/04/14 02:52:09;;;;;;;3.70;2.40;;;;;;;9.58;100.00;98948.17;105029;1260;67885;-60
2023/04/14 02:54:40;;;;;;;8.20;2.20;;;;;;;9.60;100.00;98952.22;105007;1260;72407;-58
2023/04/14 02:57:09;;;;;;;3.80;1.40;;;;;;;9.60;100.00;98952.50;105071;1259;63503;-58
2023/04/14 02:59:41;;;;;;;4.70;2.00;;;;;;;9.58;100.00;98955.66;104672;1267;61686;-62
2023/04/14 03:02:11;;;;;;;3.70;2.30;;;;;;;9.61;100.00;98951.41;105329;1260;76330;-57
2023/04/14 03:04:44;;;;;;;3.00;1.80;;;;;;;9.63;100.00;98955.45;105124;1265;67825;-57
2023/04/14 03:07:29;;;;;;;4.00;1.50;;;;;;;9.64;100.00;98952.16;105041;1266;71930;-59
2023/04/14 03:09:59;;;;;;;4.00;1.90;;;;;;;9.64;100.00;98952.47;105121;1267;62286;-57
2023/04/14 03:12:28;;;;;;;2.40;1.40;;;;;;;9.64;100.00;98951.38;105171;1259;61600;-56
2023/04/14 03:14:58;;;;;;;3.70;1.60;;;;;;;9.64;100.00;98956.16;105134;1267;76065;-58
2023/04/14 03:17:27;;;;;;;5.70;1.70;;;;;;;9.64;100.00;98957.99;104763;1268;67609;-58
2023/04/14 03:19:57;;;;;;;5.00;1.60;;;;;;;9.65;100.00;98963.73;105159;1260;73288;-58
2023/04/14 03:22:27;;;;;;;3.00;1.30;;;;;;;9.65;100.00;98965.30;105017;1265;62506;-58
2023/04/14 03:24:57;;;;;;;2.60;1.30;;;;;;;9.66;100.00;98969.78;105080;1259;61301;-59
2023/04/14 03:27:29;;;;;;;3.30;1.40;;;;;;;9.65;100.00;98970.19;105247;1265;76247;-58
2023/04/14 03:30:00;;;;;;;3.30;1.40;;;;;;;9.65;100.00;98967.63;104869;1267;67831;-57
2023/04/14 03:32:35;;;;;;;5.60;1.50;;;;;;;9.65;100.00;98966.34;104938;1267;74206;-63
2023/04/14 03:35:06;;;;;;;4.00;1.70;;;;;;;9.65;100.00;98968.95;105272;1259;61725;-60
2023/04/14 03:37:38;;;;;;;2.40;1.40;;;;;;;9.64;100.00;98966.67;105060;1260;61201;-56
2023/04/14 03:40:07;;;;;;;2.00;1.40;;;;;;;9.63;100.00;98972.42;105111;1260;75213;-55
2023/04/14 03:42:37;;;;;;;2.50;1.30;;;;;;;9.64;100.00;98974.01;105138;1265;68836;-56
2023/04/14 03:45:08;;;;;;;3.40;1.80;;;;;;;9.64;100.00;98977.33;105241;1265;74531;-60
2023/04/14 03:47:37;;;;;;;3.00;1.80;;;;;;;9.62;100.00;98983.27;105147;1265;62020;-58
2023/04/14 03:50:08;;;;;;;3.00;1.80;;;;;;;9.61;100.00;98983.42;105163;1260;61211;-60
2023/04/14 03:52:37;;;;;;;2.80;1.80;;;;;;;9.62;100.00;98987.50;105073;1260;74684;-57
2023/04/14 03:55:06;;;;;;;2.00;1.20;;;;;;;9.61;100.00;98993.56;105180;1260;69197;-57
2023/04/14 03:57:37;;;;;;;3.10;1.60;;;;;;;9.61;100.00;98996.12;105106;1260;74086;-55
2023/04/14 04:00:08;;;;;;;3.50;1.90;;;;;;;9.62;100.00;98998.18;105262;1262;61866;-60
2023/04/14 04:03:07;;;;;;;3.50;1.70;;;;;;;9.61;100.00;98999.75;104824;1261;61907;-58
2023/04/14 04:05:39;;;;;;;3.00;1.50;;;;;;;9.63;100.00;99000.36;105312;1261;76140;-59
2023/04/14 04:08:07;;;;;;;3.00;1.30;;;;;;;9.66;100.00;98999.83;104947;1265;67807;-62
2023/04/14 04:10:36;;;;;;;2.70;1.30;;;;;;;9.67;100.00;98998.05;105243;1260;73917;-57
2023/04/14 04:13:06;;;;;;;3.50;1.50;;;;;;;9.67;100.00;98996.77;105136;1263;62601;-57
2023/04/14 04:15:35;;;;;;;2.20;1.50;;;;;;;9.68;100.00;98994.76;105194;1260;61181;-62
2023/04/14 04:18:06;;;;;;;2.40;1.20;;;;;;;9.68;100.00;98997.92;105183;1262;76236;-59
2023/04/14 04:20:36;;;;;;;5.60;1.20;;;;;;;9.68;100.00;98997.30;104949;1260;67740;-57
2023/04/14 04:23:05;;;;;;;2.40;1.40;;;;;;;9.66;100.00;99002.02;104926;1259;74235;-57
2023/04/14 04:25:35;;;;;;;2.40;1.20;;;;;;;9.65;100.00;99001.14;105101;1260;63102;-58
2023/04/14 04:28:13;;;;;;;2.60;1.30;;;;;;;9.65;100.00;99001.62;105137;1266;62617;-57
2023/04/14 04:30:44;;;;;;;1.90;1.00;;;;;;;9.68;100.00;99000.57;105011;1264;75762;-59
2023/04/14 04:33:14;;;;;;;1.80;1.00;;;;;;;9.69;100.00;99002.16;105057;1259;68441;-58
2023/04/14 04:35:43;;;;;;;2.10;1.20;;;;;;;9.69;100.00;98998.63;105230;1260;74087;-58
2023/04/14 04:38:12;;;;;;;2.20;1.20;;;;;;;9.69;100.00;98997.67;105189;1259;63882;-56
2023/04/14 04:40:43;;;;;;;1.80;1.00;;;;;;;9.67;100.00;99002.06;105251;1260;61196;-57
2023/04/14 04:43:28;;;;;;;1.80;0.70;;;;;;;9.66;100.00;99004.77;105347;1264;76200;-58
2023/04/14 04:45:57;;;;;;;2.90;1.00;;;;;;;9.67;100.00;99006.94;105321;1259;67905;-57
2023/04/14 04:48:27;;;;;;;2.50;1.00;;;;;;;9.68;100.00;99003.29;105139;1260;73966;-57
2023/04/14 04:50:56;;;;;;;1.90;0.80;;;;;;;9.72;100.00;99007.75;105272;1260;62291;-60
2023/04/14 04:53:25;;;;;;;8.90;1.20;;;;;;;9.74;100.00;99011.27;104929;1260;61323;-58
2023/04/14 04:55:57;;;;;;;2.90;1.10;;;;;;;9.73;100.00;99008.63;105220;1259;76019;-57
2023/04/14 04:58:25;;;;;;;5.30;1.80;;;;;;;9.73;100.00;99011.55;105103;1259;69086;-56
2023/04/14 05:00:54;;;;;;;2.10;0.90;;;;;;;9.73;100.00;99012.74;105519;1263;74179;-60
2023/04/14 05:03:25;;;;;;;11.40;7.30;;;;;;;9.77;100.00;99009.73;105526;1260;61645;-57
2023/04/14 05:05:54;;;;;;;3.80;2.00;;;;;;;9.78;100.00;99007.81;105228;1260;61237;-57
2023/04/14 05:08:23;;;;;;;3.60;1.70;;;;;;;9.80;100.00;99013.89;105111;1261;76170;-57
2023/04/14 05:10:55;;;;;;;3.10;1.50;;;;;;;9.82;100.00;99014.08;105431;1260;68138;-59
2023/04/14 05:13:24;;;;;;;2.90;1.60;;;;;;;9.82;100.00;99018.23;105363;1260;74404;-57
2023/04/14 05:16:03;;;;;;;4.50;1.30;;;;;;;9.81;100.00;99021.52;105136;1259;64098;-58
2023/04/14 05:18:34;;;;;;;11.30;10.20;;;;;;;9.84;100.00;99022.10;105414;1265;61803;-62
2023/04/14 05:21:11;;;;;;;4.00;2.90;;;;;;;9.85;100.00;99026.63;105122;1263;76516;-58
2023/04/14 05:23:42;;;;;;;12.10;8.50;;;;;;;9.88;100.00;99027.68;104948;1260;67774;-57
2023/04/14 05:26:15;;;;;;;12.40;5.60;;;;;;;9.89;100.00;99028.42;104855;1265;73950;-57
2023/04/14 05:28:47;;;;;;;14.50;6.40;;;;;;;9.90;100.00;99028.45;105115;1260;63725;-57
2023/04/14 05:31:16;;;;;;;13.00;7.10;;;;;;;9.90;100.00;99034.13;105356;1264;61800;-57
2023/04/14 05:33:44;;;;;;;6.70;3.60;;;;;;;9.91;100.00;99034.52;105230;1260;75177;-56
2023/04/14 05:36:13;;;;;;;4.40;2.40;;;;;;;9.92;100.00;99037.35;105171;1259;68286;-57
2023/04/14 05:38:42;;;;;;;5.00;2.80;;;;;;;9.91;100.00;99035.91;105219;1264;73777;-57
2023/04/14 05:41:11;;;;;;;4.20;2.70;;;;;;;9.90;100.00;99040.06;105255;1260;63497;-61
2023/04/14 05:43:41;;;;;;;3.50;1.90;;;;;;;9.90;100.00;99037.26;105231;1260;61146;-56
2023/04/14 05:46:10;;;;;;;85.50;50.00;;;;;;;9.90;100.00;99040.02;105497;1263;76014;-61
2023/04/14 05:48:40;;;;;;;20.30;9.80;;;;;;;9.90;100.00;99044.66;105236;1264;67695;-58
2023/04/14 05:51:08;;;;;;;10.80;5.40;;;;;;;9.93;100.00;99046.57;105100;1259;74215;-59
2023/04/14 05:53:37;;;;;;;33.20;18.10;;;;;;;9.95;100.00;99047.10;105096;1260;63494;-58
2023/04/14 05:56:08;;;;;;;13.40;7.20;;;;;;;9.97;100.00;99052.48;105143;1259;61411;-62
2023/04/14 05:58:37;;;;;;;8.70;3.70;;;;;;;9.99;100.00;99057.02;105263;1264;76189;-57
2023/04/14 06:01:10;;;;;;;20.90;14.10;;;;;;;10.00;100.00;99055.71;105302;1263;67630;-59
2023/04/14 06:03:39;;;;;;;18.50;15.50;;;;;;;10.01;100.00;99061.79;105149;1259;72993;-56
2023/04/14 06:06:08;;;;;;;8.10;4.70;;;;;;;10.03;100.00;99064.90;105212;1259;63650;-57
2023/04/14 06:08:38;;;;;;;4.90;2.60;;;;;;;10.03;100.00;99062.41;105180;1260;62234;-58
2023/04/14 06:11:06;;;;;;;4.50;2.50;;;;;;;10.03;100.00;99062.53;105069;1260;75322;-58
2023/04/14 06:13:35;;;;;;;18.40;11.10;;;;;;;10.05;100.00;99065.09;105400;1263;67752;-60
2023/04/14 06:16:04;;;;;;;5.40;2.70;;;;;;;10.07;100.00;99063.95;105330;1262;73517;-56
2023/04/14 06:18:34;;;;;;;5.10;3.00;;;;;;;10.11;100.00;99068.98;105203;1260;61274;-57
2023/04/14 06:21:03;;;;;;;5.00;2.60;;;;;;;10.13;100.00;99070.61;105270;1259;61701;-56
2023/04/14 06:23:32;;;;;;;15.50;11.30;;;;;;;10.12;100.00;99075.35;105062;1259;76165;-56
2023/04/14 06:26:00;;;;;;;8.90;5.70;;;;;;;10.11;100.00;99078.10;105203;1262;67300;-57
2023/04/14 06:28:29;;;;;;;3.80;1.60;;;;;;;10.11;100.00;99080.80;105250;1263;73514;-58
2023/04/14 06:30:59;;;;;;;6.90;4.70;;;;;;;10.11;100.00;99084.64;105094;1260;62258;-57
2023/04/14 06:33:28;;;;;;;4.30;2.50;;;;;;;10.12;100.00;99089.85;105268;1259;61603;-56
2023/04/14 06:36:00;;;;;;;3.60;2.10;;;;;;;10.14;100.00;99091.60;105058;1259;76018;-56
2023/04/14 06:38:29;;;;;;;4.30;1.80;;;;;;;10.14;100.00;99091.23;105030;1260;68532;-61
2023/04/14 06:40:57;;;;;;;2.80;1.60;;;;;;;10.16;100.00;99090.83;105185;1263;74398;-56
2023/04/14 06:43:27;;;;;;;2.70;1.30;;;;;;;10.18;100.00;99096.83;105231;1260;63361;-57
2023/04/14 06:45:56;;;;;;;4.10;2.00;;;;;;;10.20;100.00;99096.91;105254;1259;61896;-57
2023/04/14 06:48:26;;;;;;;4.90;3.20;;;;;;;10.20;100.00;99101.02;105308;1261;76199;-57
2023/04/14 06:50:56;;;;;;;3.60;2.20;;;;;;;10.20;100.00;99103.74;105026;1259;68601;-57
2023/04/14 06:53:26;;;;;;;4.00;2.30;;;;;;;10.19;100.00;99102.06;105263;1260;73192;-57
2023/04/14 06:56:00;;;;;;;3.30;1.60;;;;;;;10.19;100.00;99104.67;104988;1259;63099;-56
2023/04/14 06:58:29;;;;;;;4.00;1.90;;;;;;;10.17;100.00;99103.48;105081;1262;61292;-57
2023/04/14 07:01:00;;;;;;;3.50;1.80;;;;;;;10.15;100.00;99109.02;105319;1259;76204;-55
2023/04/14 07:03:29;;;;;;;2.60;1.30;;;;;;;10.12;100.00;99111.12;105135;1262;68618;-62
2023/04/14 07:06:03;;;;;;;3.10;1.60;;;;;;;10.08;100.00;99117.02;105461;1263;73055;-62
2023/04/14 07:08:33;;;;;;;3.70;1.40;;;;;;;10.03;100.00;99117.77;105106;1259;63672;-56
2023/04/14 07:11:04;;;;;;;3.70;1.50;;;;;;;9.98;100.00;99119.75;105235;1259;61369;-56
2023/04/14 07:13:33;;;;;;;2.50;1.40;;;;;;;9.94;100.00;99121.17;105157;1265;74470;-56
2023/04/14 07:16:06;;;;;;;3.10;1.70;;;;;;;9.95;100.00;99122.85;105251;1265;67917;-56
2023/04/14 07:18:36;;;;;;;3.90;1.80;;;;;;;9.96;100.00;99125.30;105227;1259;74127;-56
2023/04/14 07:21:04;;;;;;;4.40;2.20;;;;;;;9.93;100.00;99122.70;105272;1259;61948;-61
2023/04/14 07:23:39;;;;;;;4.00;2.60;;;;;;;9.90;100.00;99122.23;104930;1260;61338;-55
2023/04/14 07:26:09;;;;;;;4.90;1.90;;;;;;;9.87;100.00;99130.08;105178;1262;75899;-56
2023/04/14 07:28:39;;;;;;;5.90;2.30;;;;;;;9.85;100.00;99136.34;105122;1259;68454;-56
2023/04/14 07:31:09;;;;;;;3.90;2.20;;;;;;;9.81;100.00;99132.39;105131;1263;72725;-58
2023/04/14 07:33:39;;;;;;;4.30;2.40;;;;;;;9.75;100.00;99136.25;105047;1259;63504;-63
2023/04/14 07:36:08;;;;;;;4.70;2.60;;;;;;;9.73;100.00;99141.17;105048;1264;62280;-58
2023/04/14 07:38:36;;;;;;;4.40;2.50;;;;;;;9.74;100.00;99147.55;105174;1263;76351;-59
2023/04/14 07:41:06;;;;;;;4.80;2.60;;;;;;;9.74;100.00;99149.95;105237;1260;67266;-57
2023/04/14 07:43:35;;;;;;;3.80;2.50;;;;;;;9.75;100.00;99148.50;105357;1259;73191;-61
2023/04/14 07:46:05;;;;;;;4.10;2.40;;;;;;;9.75;100.00;99157.08;105294;1263;62229;-56
2023/04/14 07:48:34;;;;;;;3.90;2.40;;;;;;;9.74;100.00;99156.37;105268;1259;61312;-56
2023/04/14 07:51:08;;;;;;;3.10;2.10;;;;;;;9.73;100.00;99158.15;105167;1259;76105;-58
2023/04/14 07:53:41;;;;;;;9.10;3.10;;;;;;;9.74;100.00;99159.08;105365;1260;68635;-58
2023/04/14 07:56:10;;;;;;;4.10;2.40;;;;;;;9.75;100.00;99157.79;105029;1263;74267;-56
2023/04/14 07:58:39;;;;;;;4.60;2.30;;;;;;;9.78;100.00;99160.59;105329;1260;63603;-58
2023/04/14 08:01:08;;;;;;;4.00;2.20;;;;;;;9.84;100.00;99162.45;105159;1259;60951;-57
2023/04/14 08:03:37;;;;;;;4.00;2.50;;;;;;;9.90;100.00;99163.23;105504;1259;75009;-58
2023/04/14 08:06:08;;;;;;;4.20;3.00;;;;;;;9.96;100.00;99164.70;105200;1259;68023;-57
2023/04/14 08:08:38;;;;;;;5.90;2.80;;;;;;;9.97;100.00;99166.10;105357;1260;73075;-58
2023/04/14 08:11:06;;;;;;;5.10;2.60;;;;;;;9.95;100.00;99171.42;105297;1260;63455;-57
2023/04/14 08:13:35;;;;;;;75.70;38.20;;;;;;;9.89;100.00;99172.77;105236;1260;61218;-62
2023/04/14 08:16:08;;;;;;;47.70;24.20;;;;;;;9.82;100.00;99169.51;105247;1259;76285;-57
2023/04/14 08:18:38;;;;;;;155.60;64.40;;;;;;;9.72;100.00;99170.61;105346;1261;67377;-57
2023/04/14 08:21:07;;;;;;;31.80;13.80;;;;;;;9.68;100.00;99172.46;105152;1261;74170;-56
2023/04/14 08:23:38;;;;;;;64.50;35.00;;;;;;;9.68;100.00;99171.10;105160;1264;62550;-58
2023/04/14 08:26:07;;;;;;;46.10;29.20;;;;;;;9.73;100.00;99171.09;105153;1259;61188;-56
2023/04/14 08:28:36;;;;;;;10.00;6.30;;;;;;;9.81;100.00;99171.52;105214;1260;74687;-57
2023/04/14 08:31:09;;;;;;;8.80;4.70;;;;;;;9.90;100.00;99172.29;105027;1259;68847;-56
2023/04/14 08:33:38;;;;;;;7.10;3.20;;;;;;;9.96;100.00;99178.08;105489;1264;72354;-57
2023/04/14 08:36:07;;;;;;;6.00;4.10;;;;;;;10.02;100.00;99178.45;105282;1259;63480;-58
2023/04/14 08:38:39;;;;;;;4.80;3.10;;;;;;;10.07;100.00;99183.23;105206;1260;61174;-57
2023/04/14 08:41:09;;;;;;;5.40;2.00;;;;;;;10.08;100.00;99189.90;105442;1260;75537;-58
2023/04/14 08:43:38;;;;;;;4.10;1.70;;;;;;;10.06;100.00;99195.82;105116;1259;67976;-58
2023/04/14 08:46:11;;;;;;;3.40;1.80;;;;;;;10.01;100.00;99198.45;105418;1259;74331;-58
2023/04/14 08:48:40;;;;;;;3.80;2.00;;;;;;;9.90;100.00;99199.48;105156;1259;63699;-57
2023/04/14 08:51:15;;;;;;;2.70;1.50;;;;;;;9.76;100.00;99204.88;105534;1260;61812;-59
2023/04/14 08:53:45;;;;;;;4.70;2.60;;;;;;;9.62;100.00;99209.38;105206;1262;76168;-57
2023/04/14 08:56:16;;;;;;;2.40;1.20;;;;;;;9.48;100.00;99208.46;105082;1264;67337;-57
2023/04/14 08:58:44;;;;;;;2.10;1.20;;;;;;;9.37;100.00;99212.88;104918;1260;74804;-57
2023/04/14 09:01:14;;;;;;;3.10;1.50;;;;;;;9.32;100.00;99215.17;105263;1259;63510;-62
2023/04/14 09:03:45;;;;;;;5.20;1.90;;;;;;;9.30;100.00;99222.40;105663;1259;61581;-58
2023/04/14 09:06:14;;;;;;;4.30;1.50;;;;;;;9.28;100.00;99221.61;105250;1259;76264;-58
2023/04/14 09:08:47;;;;;;;3.20;1.50;;;;;;;9.28;100.00;99231.81;105106;1263;67892;-57
2023/04/14 09:11:16;;;;;;;3.40;1.40;;;;;;;9.27;100.00;99235.71;105057;1264;73301;-58
2023/04/14 09:13:46;;;;;;;3.80;1.50;;;;;;;9.26;100.00;99240.48;105064;1264;63064;-57
2023/04/14 09:16:16;;;;;;;3.90;1.70;;;;;;;9.29;100.00;99243.14;105076;1263;61124;-57
2023/04/14 09:18:46;;;;;;;3.40;1.70;;;;;;;9.33;100.00;99243.05;104916;1259;357094;-59
2023/04/14 09:21:16;;;;;;;4.50;1.60;;;;;;;9.39;100.00;99248.69;105259;1259;67934;-59
2023/04/14 09:24:05;;;;;;;3.10;1.40;;;;;;;9.46;100.00;99255.70;105090;1260;73476;-58
2023/04/14 09:26:36;;;;;;;4.70;1.70;;;;;;;9.50;100.00;99259.41;105186;1259;63279;-58
2023/04/14 09:29:06;;;;;;;29.70;16.70;;;;;;;9.54;100.00;99266.75;105316;1263;62038;-59
2023/04/14 09:31:41;;;;;;;30.00;14.80;;;;;;;9.59;100.00;99268.50;105000;1259;76252;-56
2023/04/14 09:34:18;;;;;;;29.60;14.40;;;;;;;9.64;100.00;99268.95;105285;1263;67462;-59
2023/04/14 09:37:03;;;;;;;36.00;18.00;;;;;;;9.67;100.00;99271.05;105493;1265;73649;-60
2023/04/14 09:39:35;;;;;;;15.10;8.20;;;;;;;9.72;100.00;99272.02;105111;1263;62408;-57
2023/04/14 09:42:04;;;;;;;15.10;7.70;;;;;;;9.76;100.00;99278.18;105283;1259;61896;-59
2023/04/14 09:44:32;;;;;;;84.70;42.70;;;;;;;9.83;100.00;99279.61;105115;1263;75942;-63
2023/04/14 09:47:06;;;;;;;12.90;7.30;;;;;;;9.90;100.00;99281.02;105236;1259;69249;-56
2023/04/14 09:49:35;;;;;;;10.80;6.30;;;;;;;9.98;100.00;99287.81;105039;1264;73201;-57
2023/04/14 09:52:10;;;;;;;8.30;4.50;;;;;;;10.05;100.00;99291.73;105086;1259;63874;-56
2023/04/14 09:54:39;;;;;;;4.60;2.50;;;;;;;10.12;100.00;99295.23;105225;1259;61146;-57
2023/04/14 09:57:09;;;;;;;7.10;5.20;;;;;;;10.09;100.00;99301.30;105201;1263;76497;-56
2023/04/14 09:59:38;;;;;;;8.00;4.60;;;;;;;10.03;100.00;99302.19;105084;1259;68404;-57
2023/04/14 10:02:07;;;;;;;6.70;5.10;;;;;;;9.92;100.00;99304.40;105429;1263;72264;-58
2023/04/14 10:04:36;;;;;;;5.40;3.00;;;;;;;9.76;100.00;99310.61;105239;1265;62667;-56
2023/04/14 10:07:10;;;;;;;3.20;1.70;;;;;;;9.57;100.00;99311.97;105212;1259;61293;-57
2023/04/14 10:09:39;;;;;;;2.20;1.20;;;;;;;9.40;100.00;99322.29;105552;1260;75212;-62
2023/04/14 10:12:16;;;;;;;2.20;1.10;;;;;;;9.29;100.00;99325.59;105172;1259;69013;-59
2023/04/14 10:14:45;;;;;;;2.50;1.30;;;;;;;9.22;100.00;99334.97;105306;1265;73181;-58
2023/04/14 10:17:14;;;;;;;3.50;1.20;;;;;;;9.17;100.00;99334.64;105235;1264;62604;-57
2023/04/14 10:19:43;;;;;;;2.70;1.10;;;;;;;9.08;100.00;99338.54;105125;1263;61176;-59
2023/04/14 10:22:12;;;;;;;2.80;1.20;;;;;;;9.00;100.00;99344.95;104912;1265;76102;-57
2023/04/14 10:24:40;;;;;;;2.30;0.90;;;;;;;8.95;100.00;99348.34;105201;1260;68691;-58
2023/04/14 10:27:09;;;;;;;2.90;1.00;;;;;;;8.93;100.00;99351.52;105169;1260;73013;-61
2023/04/14 10:29:40;;;;;;;3.20;1.30;;;;;;;8.92;100.00;99356.48;105045;1263;62513;-57
2023/04/14 10:32:10;;;;;;;2.60;1.20;;;;;;;8.93;100.00;99359.98;105130;1260;61832;-58
2023/04/14 10:34:39;;;;;;;3.10;2.00;;;;;;;8.95;100.00;99368.80;105200;1262;76074;-58
2023/04/14 10:37:17;;;;;;;2.30;1.00;;;;;;;8.98;100.00;99370.14;105349;1259;68378;-58
2023/04/14 10:39:54;;;;;;;2.10;0.90;;;;;;;9.03;100.00;99375.74;105185;1263;74161;-62
2023/04/14 10:42:23;;;;;;;2.20;0.80;;;;;;;9.07;100.00;99381.05;105060;1259;61339;-57
2023/04/14 10:45:02;;;;;;;3.80;1.70;;;;;;;9.09;100.00;99387.67;105197;1263;62173;-57
2023/04/14 10:47:30;;;;;;;2.80;1.30;;;;;;;9.09;100.00;99391.33;105171;1260;76115;-57
2023/04/14 10:50:08;;;;;;;2.60;0.90;;;;;;;9.09;100.00;99397.86;105230;1265;67672;-57
2023/04/14 10:52:38;;;;;;;1.70;0.80;;;;;;;9.08;100.00;99397.69;104711;1260;74109;-57
2023/04/14 10:55:07;;;;;;;1.70;0.70;;;;;;;9.03;100.00;99405.22;105408;1265;62477;-58
2023/04/14 10:57:40;;;;;;;2.40;0.80;;;;;;;8.99;100.00;99409.98;105299;1263;61267;-59
2023/04/14 11:00:18;;;;;;;2.30;0.90;;;;;;;8.96;100.00;99414.52;105251;1264;76122;-57
2023/04/14 11:03:00;;;;;;;1.50;0.60;;;;;;;8.95;100.00;99421.67;105723;1259;67904;-61
2023/04/14 11:05:31;;;;;;;1.90;0.90;;;;;;;8.93;100.00;99423.72;105268;1265;72718;-58
2023/04/14 11:08:01;;;;;;;;;;;;;;;8.95;100.00;99427.18;105331;1259;63486;-57
2023/04/14 11:10:30;;;;;;;1.90;0.60;;;;;;;8.99;100.00;99428.96;105302;1265;61264;-57
2023/04/14 11:13:04;;;;;;;2.30;1.10;;;;;;;9.04;100.00;99432.83;105322;1260;75438;-57
2023/04/14 11:15:42;;;;;;;1.90;0.80;;;;;;;9.09;100.00;99436.21;105152;1264;68322;-57
2023/04/14 11:18:31;;;;;;;2.30;0.90;;;;;;;9.10;100.00;99441.30;105100;1260;73444;-57
2023/04/14 11:21:03;;;;;;;2.00;0.80;;;;;;;9.07;100.00;99446.20;105188;1264;62258;-57
2023/04/14 11:23:35;;;;;;;2.60;0.50;;;;;;;9.07;100.00;99451.88;105086;1259;61837;-58
2023/04/14 11:26:09;;;;;;;2.40;0.80;;;;;;;9.09;100.00;99456.98;105349;1265;76102;-59
2023/04/14 11:28:44;;;;;;;2.20;0.80;;;;;;;9.10;100.00;99459.02;105125;1259;68730;-57
2023/04/14 11:31:14;;;;;;;2.90;0.70;;;;;;;9.09;100.00;99461.96;105217;1259;74272;-58
2023/04/14 11:33:43;;;;;;;2.30;0.90;;;;;;;9.14;100.00;99465.90;105212;1259;61389;-62
2023/04/14 11:36:15;;;;;;;1.90;0.70;;;;;;;9.17;100.00;99471.45;105124;1259;61118;-58
2023/04/14 11:38:46;;;;;;;1.80;0.80;;;;;;;9.16;100.00;99476.08;105226;1264;76079;-58
2023/04/14 11:41:15;;;;;;;2.60;0.80;;;;;;;9.17;100.00;99479.61;105324;1265;67623;-59